Colome, South Dakota
Current Conditions -  °F | °C
As of 7:53 PM on Saturday 25 Oct 2014 (Local Time) from KICR Reporting Station
Clear Clear  
Wind Chill: 52°   Ceiling: Unl
Heat Index: 52°   Visibility: 10mi
Dew Point: 32°   Wind: 9mph
Humidity: 47%   Direction: 130°SE
Pressure: 30.02"   Gusts: NA
Location:  43.26°N, 99.72°W
Report Text: KICR 260053Z AUTO 13008KT 10SM CLR 11/00 A3002 RMK AO2 SLP173 T01110000 $
Loading
Personal Weather Stations






























Interactive Weather Map
Tropical Storm Tracking
New forecast layout! Learn more

10-Day Weather Forecast

Advertisements
Track Severe Weather on mobile